Time;durP1;ratioP1;P1;durP2;ratioP2;P2;SDS_P1;SDS_P2;PMS_P1;PMS_P2;Temp;Humidity;BMP_temperature;BMP_pressure;BME280_temperature;BME280_humidity;BME280_pressure;Samples;Min_cycle;Max_cycle;Signal;HPM_P1;HPM_P2
2023/05/07 00:00:33;;;;;;;5.68;4.00;;;15.50;93.00;;;;;;5008293;28;20040;-80
2023/05/07 00:02:59;;;;;;;8.82;4.25;;;15.50;93.90;;;;;;5041403;28;20189;-80
2023/05/07 00:05:25;;;;;;;7.55;4.32;;;15.50;94.30;;;;;;5024634;28;20131;-80
2023/05/07 00:07:52;;;;;;;7.45;5.05;;;15.50;94.50;;;;;;5025107;28;20045;-80
2023/05/07 00:10:18;;;;;;;6.47;4.68;;;15.50;94.60;;;;;;5008435;28;20030;-80
2023/05/07 00:12:43;;;;;;;7.60;4.32;;;15.40;94.70;;;;;;5025187;28;20082;-80
2023/05/07 00:15:09;;;;;;;5.25;4.50;;;15.40;95.10;;;;;;5023736;28;20025;-80
2023/05/07 00:17:35;;;;;;;5.47;4.30;;;15.40;94.80;;;;;;5006880;28;20029;-80
2023/05/07 00:20:00;;;;;;;7.55;5.32;;;15.40;94.60;;;;;;5005988;28;20753;-80
2023/05/07 00:22:26;;;;;;;6.65;4.95;;;15.40;95.70;;;;;;5022788;28;20117;-80
2023/05/07 00:24:51;;;;;;;8.50;5.10;;;15.30;95.70;;;;;;5008781;28;20033;-80
2023/05/07 00:27:17;;;;;;;8.35;5.10;;;15.30;95.50;;;;;;5025871;28;20406;-80
2023/05/07 00:29:42;;;;;;;8.65;4.75;;;15.30;95.80;;;;;;5023313;28;20121;-80
2023/05/07 00:32:08;;;;;;;7.85;4.82;;;15.30;95.90;;;;;;5024216;28;20033;-80
2023/05/07 00:34:34;;;;;;;6.60;4.65;;;15.30;97.00;;;;;;5024061;28;20066;-80
2023/05/07 00:37:01;;;;;;;6.68;5.30;;;15.30;97.20;;;;;;5007696;28;20060;-80
2023/05/07 00:39:26;;;;;;;7.55;4.57;;;15.30;96.40;;;;;;5005905;28;20025;-80
2023/05/07 00:41:52;;;;;;;6.22;4.78;;;15.20;96.80;;;;;;5024786;28;20407;-80
2023/05/07 00:44:18;;;;;;;8.60;5.10;;;15.30;96.80;;;;;;5023554;28;20495;-80
2023/05/07 00:46:44;;;;;;;12.98;5.22;;;15.20;96.90;;;;;;5025526;28;20112;-79
2023/05/07 00:49:10;;;;;;;7.63;4.55;;;15.20;97.30;;;;;;5021799;28;20057;-78
2023/05/07 00:51:35;;;;;;;6.00;4.13;;;15.20;98.40;;;;;;5020098;28;20063;-80
2023/05/07 00:54:02;;;;;;;8.18;3.97;;;15.10;98.20;;;;;;5023216;28;20465;-78
2023/05/07 00:56:28;;;;;;;3.55;3.10;;;15.10;99.00;;;;;;5003795;28;20370;-79
2023/05/07 00:58:53;;;;;;;6.35;5.30;;;15.10;99.20;;;;;;5005047;28;20040;-79
2023/05/07 01:01:19;;;;;;;8.07;5.68;;;15.00;97.40;;;;;;5005738;28;20026;-79
2023/05/07 01:03:44;;;;;;;11.00;5.50;;;14.90;97.70;;;;;;5007767;28;20047;-79
2023/05/07 01:06:12;;;;;;;5.15;4.65;;;15.00;97.00;;;;;;5005128;28;20707;-79
2023/05/07 01:08:39;;;;;;;6.93;5.20;;;14.90;97.80;;;;;;5036445;28;20032;-79
2023/05/07 01:11:05;;;;;;;11.90;5.70;;;14.80;98.70;;;;;;5020669;28;20041;-79
2023/05/07 01:13:30;;;;;;;7.15;4.35;;;14.80;99.10;;;;;;5006625;28;20095;-79
2023/05/07 01:15:56;;;;;;;9.45;5.65;;;14.70;99.50;;;;;;5024306;28;20115;-79
2023/05/07 01:18:22;;;;;;;9.43;5.70;;;14.80;99.90;;;;;;5036073;28;20436;-79
2023/05/07 01:20:47;;;;;;;4.97;4.35;;;14.80;99.90;;;;;;5003468;28;20033;-79
2023/05/07 01:23:13;;;;;;;5.93;4.97;;;14.80;99.90;;;;;;5022222;28;20123;-79
2023/05/07 01:25:38;;;;;;;5.00;3.75;;;14.80;99.90;;;;;;5007984;28;20427;-80
2023/05/07 01:28:05;;;;;;;8.75;5.47;;;14.80;99.90;;;;;;5027991;28;20116;-79
2023/05/07 01:30:31;;;;;;;7.30;5.70;;;14.70;99.90;;;;;;5009393;28;20032;-79
2023/05/07 01:33:10;;;;;;;9.20;5.93;;;14.70;99.90;;;;;;5011069;28;20044;-79
2023/05/07 01:35:38;;;;;;;7.93;5.82;;;14.70;99.90;;;;;;5041193;28;20093;-79
2023/05/07 01:38:05;;;;;;;6.43;5.55;;;14.70;99.90;;;;;;5027768;28;20040;-79
2023/05/07 01:40:31;;;;;;;10.20;6.43;;;14.70;99.90;;;;;;5026089;28;20116;-79
2023/05/07 01:42:57;;;;;;;6.70;5.95;;;14.70;99.90;;;;;;5027670;28;20044;-79
2023/05/07 01:45:23;;;;;;;8.35;6.00;;;14.60;99.90;;;;;;5018411;28;20037;-79
2023/05/07 01:47:49;;;;;;;9.32;5.50;;;14.60;99.90;;;;;;5026418;28;20090;-79
2023/05/07 01:50:15;;;;;;;8.30;5.75;;;14.60;99.90;;;;;;5025034;28;20033;-79
2023/05/07 01:52:41;;;;;;;6.43;5.60;;;14.60;99.90;;;;;;5026460;28;20485;-79
2023/05/07 01:55:07;;;;;;;10.65;6.18;;;14.60;99.90;;;;;;5007355;28;20021;-79
2023/05/07 01:57:32;;;;;;;10.25;6.25;;;14.60;99.90;;;;;;5008506;28;20106;-78
2023/05/07 01:59:58;;;;;;;7.93;5.78;;;14.60;99.90;;;;;;5041110;28;20052;-78
2023/05/07 02:02:23;;;;;;;11.32;5.97;;;14.50;99.90;;;;;;5037664;28;20554;-78
2023/05/07 02:04:49;;;;;;;12.55;5.97;;;14.50;99.90;;;;;;5011681;28;20547;-78
2023/05/07 02:07:14;;;;;;;9.35;6.65;;;14.50;99.90;;;;;;5027852;28;20021;-78
2023/05/07 02:09:40;;;;;;;9.15;6.03;;;14.50;99.90;;;;;;5010077;28;20025;-78
2023/05/07 02:12:05;;;;;;;10.13;6.57;;;14.50;99.90;;;;;;5025908;28;20044;-78
2023/05/07 02:14:31;;;;;;;7.03;6.13;;;14.40;99.90;;;;;;5010348;28;20021;-79
2023/05/07 02:16:57;;;;;;;8.93;6.38;;;14.40;99.90;;;;;;5042070;28;20532;-78
2023/05/07 02:19:22;;;;;;;10.30;6.70;;;14.30;99.90;;;;;;5038478;28;20040;-78
2023/05/07 02:21:48;;;;;;;10.93;7.55;;;14.30;99.90;;;;;;5026264;28;20090;-78
2023/05/07 02:24:13;;;;;;;10.88;7.57;;;14.30;99.90;;;;;;5029103;28;20025;-78
2023/05/07 02:26:42;;;;;;;10.27;8.70;;;14.30;99.90;;;;;;5045168;28;20040;-78
2023/05/07 02:29:07;;;;;;;8.07;6.13;;;14.30;99.90;;;;;;5008684;28;20033;-78
2023/05/07 02:31:33;;;;;;;9.23;6.60;;;14.30;99.90;;;;;;5025581;28;20036;-78
2023/05/07 02:34:00;;;;;;;10.10;8.00;;;14.30;99.90;;;;;;5012536;28;20033;-78
2023/05/07 02:36:26;;;;;;;11.07;7.95;;;14.30;99.90;;;;;;5023839;28;20032;-78
2023/05/07 02:38:52;;;;;;;9.75;8.13;;;14.20;99.90;;;;;;5025846;28;20828;-78
2023/05/07 02:41:17;;;;;;;9.90;8.02;;;14.20;99.90;;;;;;5043642;28;20029;-78
2023/05/07 02:43:43;;;;;;;10.73;8.88;;;14.20;99.90;;;;;;5011215;28;20044;-78
2023/05/07 02:46:08;;;;;;;12.95;8.82;;;14.10;99.90;;;;;;5007977;28;20107;-79
2023/05/07 02:48:34;;;;;;;11.45;9.00;;;14.00;99.90;;;;;;5007924;28;20025;-80
2023/05/07 02:51:00;;;;;;;9.50;8.60;;;14.00;99.90;;;;;;5027533;28;20032;-80
2023/05/07 02:53:26;;;;;;;14.50;9.63;;;14.10;99.90;;;;;;5044464;28;20092;-80
2023/05/07 02:55:55;;;;;;;12.40;9.02;;;14.00;99.90;;;;;;5028411;28;20036;-80
2023/05/07 02:58:21;;;;;;;11.13;9.45;;;13.90;99.90;;;;;;5008485;28;20036;-79
2023/05/07 03:00:47;;;;;;;11.95;9.45;;;13.90;99.90;;;;;;5026526;28;20481;-80
2023/05/07 03:03:12;;;;;;;11.25;9.45;;;13.90;99.90;;;;;;5026932;28;20740;-79
2023/05/07 03:05:38;;;;;;;14.35;9.77;;;13.90;99.90;;;;;;5011429;28;20037;-79
2023/05/07 03:08:04;;;;;;;11.55;10.07;;;13.80;99.90;;;;;;5027131;28;20032;-79
2023/05/07 03:10:30;;;;;;;12.23;8.80;;;13.80;99.90;;;;;;5044562;28;20039;-80
2023/05/07 03:12:55;;;;;;;13.60;9.50;;;13.80;99.90;;;;;;5011129;28;20397;-79
2023/05/07 03:15:21;;;;;;;12.13;8.95;;;13.70;99.90;;;;;;5009217;28;20116;-79
2023/05/07 03:17:47;;;;;;;11.95;9.48;;;13.70;99.90;;;;;;5011724;28;20518;-79
2023/05/07 03:20:13;;;;;;;9.85;8.77;;;13.70;99.90;;;;;;5026307;28;20556;-80
2023/05/07 03:22:39;;;;;;;10.00;7.97;;;13.70;99.90;;;;;;5010160;28;20119;-79
2023/05/07 03:25:05;;;;;;;9.27;8.27;;;13.70;99.90;;;;;;5008805;28;20078;-79
2023/05/07 03:27:31;;;;;;;16.92;9.55;;;13.70;99.90;;;;;;5010660;28;20036;-79
2023/05/07 03:29:56;;;;;;;10.68;9.45;;;13.60;99.90;;;;;;5010725;28;20029;-79
2023/05/07 03:32:22;;;;;;;11.52;9.55;;;13.60;99.90;;;;;;5010125;28;20044;-79
2023/05/07 03:34:47;;;;;;;11.77;8.55;;;13.60;99.90;;;;;;5009186;28;20028;-80
2023/05/07 03:37:13;;;;;;;16.08;9.45;;;13.50;99.90;;;;;;5026579;28;20156;-79
2023/05/07 03:39:38;;;;;;;15.10;9.18;;;13.50;99.90;;;;;;5026475;28;20045;-79
2023/05/07 03:42:04;;;;;;;13.30;9.68;;;13.50;99.90;;;;;;5010454;28;20033;-79
2023/05/07 03:44:29;;;;;;;10.00;9.00;;;13.50;99.90;;;;;;5024283;28;20109;-80
2023/05/07 03:46:55;;;;;;;18.08;9.43;;;13.50;99.90;;;;;;5025589;28;20037;-79
2023/05/07 03:49:21;;;;;;;10.13;8.43;;;13.50;99.90;;;;;;5027840;28;20057;-79
2023/05/07 03:51:46;;;;;;;16.60;9.57;;;13.40;99.90;;;;;;5009339;28;20037;-79
2023/05/07 03:54:12;;;;;;;13.82;9.57;;;13.40;99.90;;;;;;5009635;28;20062;-79
2023/05/07 03:56:37;;;;;;;13.45;9.75;;;13.30;99.90;;;;;;5009151;28;20060;-79
2023/05/07 03:59:03;;;;;;;14.85;10.02;;;13.40;99.90;;;;;;5010003;28;20826;-80
2023/05/07 04:01:28;;;;;;;15.80;11.18;;;13.30;99.90;;;;;;5043023;28;20037;-79
2023/05/07 04:03:54;;;;;;;13.55;9.88;;;13.40;99.90;;;;;;5010422;28;20102;-79
2023/05/07 04:06:20;;;;;;;13.15;11.07;;;13.30;99.90;;;;;;5006514;28;20052;-80
2023/05/07 04:08:46;;;;;;;15.52;11.00;;;13.30;99.90;;;;;;5021165;28;20484;-80
2023/05/07 04:11:11;;;;;;;13.07;10.45;;;13.30;99.90;;;;;;5041408;28;20041;-80
2023/05/07 04:13:37;;;;;;;13.57;10.57;;;13.30;99.90;;;;;;5026166;28;20040;-79
2023/05/07 04:16:03;;;;;;;13.20;9.77;;;13.40;99.90;;;;;;5025569;28;20508;-79
2023/05/07 04:18:29;;;;;;;23.83;12.38;;;13.40;99.90;;;;;;5024114;28;20036;-79
2023/05/07 04:20:54;;;;;;;16.60;11.00;;;13.40;99.90;;;;;;5027206;28;20029;-79
2023/05/07 04:23:20;;;;;;;13.85;10.70;;;13.30;99.90;;;;;;5026338;28;20037;-80
2023/05/07 04:25:45;;;;;;;16.15;10.88;;;13.30;99.90;;;;;;5024672;28;20071;-80
2023/05/07 04:28:12;;;;;;;14.00;10.85;;;13.40;99.90;;;;;;5026270;28;20032;-80
2023/05/07 04:30:38;;;;;;;18.30;11.27;;;13.40;99.90;;;;;;5027275;28;20574;-79
2023/05/07 04:33:03;;;;;;;15.57;12.73;;;13.40;99.90;;;;;;5040269;28;20060;-79
2023/05/07 04:35:29;;;;;;;15.27;11.73;;;13.40;99.90;;;;;;5009907;28;20120;-79
2023/05/07 04:37:55;;;;;;;12.77;9.43;;;13.40;99.90;;;;;;5008665;28;20033;-80
2023/05/07 04:40:20;;;;;;;12.70;10.20;;;13.50;99.90;;;;;;5005042;28;20083;-80
2023/05/07 04:42:46;;;;;;;13.70;10.70;;;13.60;99.90;;;;;;5007793;28;20385;-79
2023/05/07 04:45:12;;;;;;;12.25;10.13;;;13.60;99.90;;;;;;5041956;28;20045;-80
2023/05/07 04:47:38;;;;;;;12.18;9.02;;;13.60;99.90;;;;;;5023697;28;20441;-80
2023/05/07 04:50:04;;;;;;;10.93;9.77;;;13.70;99.90;;;;;;5007453;28;20087;-80
2023/05/07 04:52:30;;;;;;;9.20;6.65;;;13.70;99.90;;;;;;5026613;28;20070;-79
2023/05/07 04:54:56;;;;;;;11.25;9.15;;;13.70;99.90;;;;;;5025598;28;20393;-80
2023/05/07 04:57:22;;;;;;;11.27;8.85;;;13.70;99.90;;;;;;5025228;28;20025;-79
2023/05/07 04:59:47;;;;;;;17.38;10.75;;;13.90;99.90;;;;;;5042314;28;20025;-80
2023/05/07 05:02:13;;;;;;;11.60;8.93;;;13.80;99.90;;;;;;5026071;28;20464;-80
2023/05/07 05:04:38;;;;;;;9.57;8.60;;;13.80;99.90;;;;;;5046044;28;20426;-80
2023/05/07 05:07:04;;;;;;;13.25;7.50;;;13.90;99.90;;;;;;5011395;28;20055;-79
2023/05/07 05:09:30;;;;;;;10.18;7.60;;;13.90;99.90;;;;;;5012104;28;20025;-79
2023/05/07 05:11:55;;;;;;;8.02;7.22;;;13.90;99.90;;;;;;5011572;28;20045;-81
2023/05/07 05:14:21;;;;;;;12.05;8.52;;;14.00;99.90;;;;;;5029423;28;20078;-81
2023/05/07 05:16:46;;;;;;;12.02;9.63;;;14.00;99.90;;;;;;5025418;28;20036;-81
2023/05/07 05:19:12;;;;;;;7.35;6.03;;;14.10;99.90;;;;;;5009191;28;20113;-81
2023/05/07 05:21:37;;;;;;;8.20;7.32;;;14.10;99.90;;;;;;5026208;28;20036;-80
2023/05/07 05:24:03;;;;;;;9.57;7.15;;;14.20;99.90;;;;;;5025542;28;20505;-80
2023/05/07 05:26:29;;;;;;;12.85;7.75;;;14.20;99.90;;;;;;5011595;28;20566;-79
2023/05/07 05:28:54;;;;;;;12.55;8.80;;;14.20;99.90;;;;;;5013477;28;20487;-80
2023/05/07 05:31:20;;;;;;;11.07;9.25;;;14.30;99.90;;;;;;5009715;28;20104;-80
2023/05/07 05:33:45;;;;;;;10.98;8.35;;;14.30;99.90;;;;;;5028635;28;20507;-80
2023/05/07 05:36:12;;;;;;;9.18;7.03;;;14.40;99.90;;;;;;5009407;28;20477;-80
2023/05/07 05:38:38;;;;;;;10.35;7.57;;;14.50;99.90;;;;;;5027967;28;20025;-80
2023/05/07 05:41:04;;;;;;;9.10;7.38;;;14.60;99.90;;;;;;5013367;28;20040;-80
2023/05/07 05:43:30;;;;;;;7.10;6.15;;;14.70;99.90;;;;;;5025170;28;20067;-80
2023/05/07 05:45:56;;;;;;;8.48;7.22;;;14.80;99.90;;;;;;5027730;28;20037;-79
2023/05/07 05:48:21;;;;;;;12.73;8.38;;;14.80;99.90;;;;;;5006464;28;20067;-79
2023/05/07 05:50:47;;;;;;;9.70;7.78;;;15.00;99.90;;;;;;5028506;28;20429;-80
2023/05/07 05:53:12;;;;;;;8.68;7.78;;;15.00;99.90;;;;;;5012077;28;20029;-79
2023/05/07 05:55:38;;;;;;;11.32;8.32;;;15.10;99.90;;;;;;5029019;28;20037;-80
2023/05/07 05:58:03;;;;;;;10.43;9.32;;;15.20;99.90;;;;;;5028833;28;20435;-80
2023/05/07 06:00:29;;;;;;;12.32;8.40;;;15.30;99.90;;;;;;5037555;28;20033;-79
2023/05/07 06:02:55;;;;;;;11.13;8.93;;;15.40;99.90;;;;;;5012193;28;20046;-79
2023/05/07 06:05:20;;;;;;;10.45;8.68;;;15.40;99.90;;;;;;5012047;28;20433;-79
2023/05/07 06:07:46;;;;;;;8.63;6.70;;;15.60;99.90;;;;;;5026892;28;20060;-79
2023/05/07 06:10:11;;;;;;;8.88;6.70;;;15.70;99.90;;;;;;5010346;28;20374;-80
2023/05/07 06:12:37;;;;;;;8.95;6.90;;;15.80;99.90;;;;;;5009890;28;20723;-79
2023/05/07 06:15:03;;;;;;;10.85;8.52;;;16.00;99.90;;;;;;5012522;28;20484;-79
2023/05/07 06:17:29;;;;;;;13.77;8.43;;;16.10;99.90;;;;;;5036031;28;20053;-79
2023/05/07 06:19:54;;;;;;;10.75;7.97;;;16.20;99.90;;;;;;5042638;28;20551;-79
2023/05/07 06:22:20;;;;;;;7.90;7.05;;;16.40;99.90;;;;;;5009958;28;20048;-79
2023/05/07 06:24:46;;;;;;;8.35;7.18;;;16.60;99.90;;;;;;5006587;28;20029;-80
2023/05/07 06:27:11;;;;;;;8.25;7.40;;;16.60;99.90;;;;;;5008387;28;20116;-79
2023/05/07 06:29:37;;;;;;;7.47;6.68;;;16.70;99.90;;;;;;5009870;28;20033;-79
2023/05/07 06:32:12;;;;;;;8.73;7.13;;;16.90;99.90;;;;;;5026480;28;20540;-79
2023/05/07 06:34:38;;;;;;;6.47;5.80;;;17.00;99.90;;;;;;5021547;28;20531;-79
2023/05/07 06:37:04;;;;;;;9.00;6.85;;;17.10;99.90;;;;;;5027079;28;20037;-79
2023/05/07 06:39:29;;;;;;;6.75;6.03;;;17.30;99.90;;;;;;5009208;28;20048;-79
2023/05/07 06:41:55;;;;;;;7.03;4.80;;;17.50;99.90;;;;;;5025444;28;20028;-79
2023/05/07 06:44:20;;;;;;;5.75;4.95;;;17.60;99.90;;;;;;5027226;28;20507;-79
2023/05/07 06:46:46;;;;;;;4.53;3.75;;;17.70;99.90;;;;;;5009129;28;20405;-79
2023/05/07 06:49:14;;;;;;;8.50;5.32;;;17.80;99.90;;;;;;5025551;28;20389;-78
2023/05/07 06:51:40;;;;;;;13.65;6.10;;;17.90;99.90;;;;;;5024711;28;20026;-78
2023/05/07 06:54:06;;;;;;;8.60;5.00;;;18.00;99.90;;;;;;5027877;28;20447;-80
2023/05/07 06:56:32;;;;;;;8.65;5.47;;;18.10;99.90;;;;;;5025473;28;20036;-80
2023/05/07 06:58:57;;;;;;;12.85;4.90;;;18.20;99.90;;;;;;5025941;28;20037;-80
2023/05/07 07:01:23;;;;;;;5.30;4.35;;;18.30;99.90;;;;;;5024691;28;20037;-81
2023/05/07 07:03:48;;;;;;;4.97;3.88;;;18.40;99.90;;;;;;5009201;28;20401;-81
2023/05/07 07:06:14;;;;;;;6.00;4.82;;;18.40;99.90;;;;;;5006568;28;20033;-78
2023/05/07 07:08:40;;;;;;;6.38;4.75;;;18.60;99.90;;;;;;5023799;28;20029;-80
2023/05/07 07:11:06;;;;;;;5.05;4.45;;;18.70;99.90;;;;;;5009012;28;20497;-78
2023/05/07 07:13:31;;;;;;;7.05;3.95;;;18.90;99.90;;;;;;5022700;28;20071;-80
2023/05/07 07:15:57;;;;;;;4.25;3.80;;;18.90;99.90;;;;;;5024013;28;20045;-79
2023/05/07 07:18:22;;;;;;;4.45;3.50;;;19.10;99.90;;;;;;5041574;28;20043;-79
2023/05/07 07:20:48;;;;;;;6.25;4.47;;;19.20;99.90;;;;;;5027525;28;20032;-80
2023/05/07 07:23:14;;;;;;;4.47;3.63;;;19.30;99.90;;;;;;5005842;28;20037;-79
2023/05/07 07:25:39;;;;;;;4.50;3.72;;;19.50;99.90;;;;;;5025101;28;20051;-79
2023/05/07 07:28:05;;;;;;;4.35;3.92;;;19.60;99.90;;;;;;5010084;28;20041;-80
2023/05/07 07:30:31;;;;;;;6.22;3.50;;;19.70;99.90;;;;;;5026292;28;20029;-80
2023/05/07 07:33:02;;;;;;;5.50;4.07;;;19.70;99.90;;;;;;5025644;28;20037;-79
2023/05/07 07:35:30;;;;;;;7.10;3.90;;;20.00;99.90;;;;;;5038323;28;20120;-80
2023/05/07 07:37:56;;;;;;;4.18;3.25;;;20.20;99.90;;;;;;5042441;28;20386;-80
2023/05/07 07:40:22;;;;;;;6.28;3.13;;;20.30;99.90;;;;;;5008303;28;20079;-76
2023/05/07 07:42:47;;;;;;;4.55;3.25;;;20.40;99.90;;;;;;5009656;28;20025;-76
2023/05/07 07:45:13;;;;;;;4.65;3.13;;;20.60;99.90;;;;;;5009746;28;20037;-77
2023/05/07 07:47:41;;;;;;;4.47;3.00;;;20.70;99.90;;;;;;5006209;28;20029;-76
2023/05/07 07:50:07;;;;;;;3.28;2.80;;;20.90;99.90;;;;;;5009306;28;20116;-77
2023/05/07 07:52:33;;;;;;;5.13;2.55;;;21.00;99.90;;;;;;5026556;28;20120;-76
2023/05/07 07:54:59;;;;;;;4.80;3.13;;;21.10;99.90;;;;;;5040968;28;20025;-77
2023/05/07 07:57:24;;;;;;;5.10;3.00;;;21.30;99.90;;;;;;5036425;28;20044;-77
2023/05/07 07:59:50;;;;;;;3.70;3.00;;;21.30;99.90;;;;;;5025277;28;20060;-77
2023/05/07 08:02:16;;;;;;;4.50;2.35;;;21.60;99.90;;;;;;5025916;28;20436;-77
2023/05/07 08:04:43;;;;;;;3.53;2.40;;;21.60;99.90;;;;;;5021466;28;20065;-76
2023/05/07 08:07:09;;;;;;;2.22;1.95;;;21.80;99.90;;;;;;5007346;28;20403;-78
2023/05/07 08:09:35;;;;;;;3.13;2.45;;;21.80;99.90;;;;;;5024180;28;20437;-78
2023/05/07 08:12:00;;;;;;;4.72;1.88;;;21.90;99.90;;;;;;5024995;28;20049;-77
2023/05/07 08:14:28;;;;;;;3.53;2.00;;;22.00;99.90;;;;;;5023458;28;20056;-78
2023/05/07 08:16:53;;;;;;;3.55;2.00;;;22.20;99.90;;;;;;5025521;28;20090;-78
2023/05/07 08:19:19;;;;;;;3.20;2.20;;;22.40;99.90;;;;;;5040728;28;20425;-80
2023/05/07 08:21:47;;;;;;;4.97;2.10;;;22.70;99.90;;;;;;5022087;28;20028;-81
2023/05/07 08:24:13;;;;;;;2.47;1.77;;;22.90;99.90;;;;;;5024862;28;20455;-80
2023/05/07 08:26:39;;;;;;;3.67;1.80;;;23.10;99.90;;;;;;5007742;28;20480;-80
2023/05/07 08:29:04;;;;;;;5.60;2.17;;;23.30;99.90;;;;;;5040859;28;20083;-81
2023/05/07 08:31:30;;;;;;;4.38;1.70;;;23.70;99.90;;;;;;5006985;28;20392;-81
2023/05/07 08:33:57;;;;;;;1.92;1.38;;;23.90;99.90;;;;;;5006543;28;20055;-80
2023/05/07 08:36:22;;;;;;;3.08;1.50;;;24.00;99.90;;;;;;5002399;28;20555;-80
2023/05/07 08:38:49;;;;;;;2.30;1.65;;;24.20;99.90;;;;;;5006063;28;20021;-81
2023/05/07 08:41:15;;;;;;;2.45;1.73;;;24.50;99.90;;;;;;5003222;28;20518;-80
2023/05/07 08:43:41;;;;;;;2.05;1.85;;;24.70;99.90;;;;;;5020541;28;20037;-80
2023/05/07 08:46:08;;;;;;;2.53;1.63;;;25.10;99.90;;;;;;5020652;28;20031;-80
2023/05/07 08:48:34;;;;;;;1.58;1.42;;;25.50;99.90;;;;;;5020494;28;20025;-79
2023/05/07 08:50:59;;;;;;;5.93;2.15;;;25.80;99.90;;;;;;5022528;28;20025;-79
2023/05/07 08:53:25;;;;;;;2.35;1.33;;;26.10;99.90;;;;;;5019617;28;20065;-79
2023/05/07 08:55:51;;;;;;;3.05;1.60;;;26.30;99.90;;;;;;5006976;28;20473;-79
2023/05/07 08:58:16;;;;;;;3.28;1.20;;;26.50;99.90;;;;;;5004263;28;20611;-79
2023/05/07 09:00:42;;;;;;;11.15;2.25;;;26.60;99.90;;;;;;5024121;28;20119;-79
2023/05/07 09:03:08;;;;;;;1.40;1.30;;;26.70;99.90;;;;;;5025180;28;20037;-80
2023/05/07 09:05:33;;;;;;;2.83;1.35;;;26.90;99.90;;;;;;5020444;28;20040;-79
2023/05/07 09:07:59;;;;;;;3.78;1.63;;;27.00;99.90;;;;;;5041182;28;20082;-79
2023/05/07 09:10:25;;;;;;;2.92;1.40;;;27.10;99.30;;;;;;5040158;28;20044;-78
2023/05/07 09:12:51;;;;;;;3.63;1.50;;;27.20;99.30;;;;;;5025135;28;20412;-79
2023/05/07 09:15:18;;;;;;;3.00;1.40;;;27.20;98.30;;;;;;5022875;28;20032;-79
2023/05/07 09:17:44;;;;;;;2.17;1.20;;;27.30;98.10;;;;;;5024983;28;20432;-78
2023/05/07 09:20:10;;;;;;;2.95;1.10;;;27.10;98.10;;;;;;5040492;28;20033;-78
2023/05/07 09:22:38;;;;;;;5.18;1.33;;;27.00;98.40;;;;;;5025005;28;20382;-78
2023/05/07 09:25:08;;;;;;;2.70;1.50;;;27.20;97.50;;;;;;5040001;28;20036;-78
2023/05/07 09:27:34;;;;;;;1.65;1.15;;;27.40;97.10;;;;;;5023346;28;20104;-77
2023/05/07 09:30:03;;;;;;;1.45;1.20;;;27.50;96.40;;;;;;5023816;28;20437;-78
2023/05/07 09:32:30;;;;;;;5.75;1.80;;;27.20;96.60;;;;;;5021256;28;20037;-78
2023/05/07 09:34:55;;;;;;;2.90;1.60;;;27.50;96.10;;;;;;5006057;28;20041;-78
2023/05/07 09:37:21;;;;;;;2.40;1.45;;;27.60;96.00;;;;;;5004238;28;20304;-78
2023/05/07 09:39:48;;;;;;;1.85;1.40;;;27.60;95.70;;;;;;5024884;28;20116;-78
2023/05/07 09:42:16;;;;;;;1.75;1.40;;;27.80;95.60;;;;;;5040621;28;20037;-78
2023/05/07 09:44:43;;;;;;;5.63;2.00;;;27.90;95.20;;;;;;5022328;28;20427;-78
2023/05/07 09:47:09;;;;;;;2.45;1.65;;;28.00;95.10;;;;;;5021899;28;20057;-78
2023/05/07 09:49:36;;;;;;;1.95;1.80;;;28.20;95.20;;;;;;5044141;28;20104;-78
2023/05/07 09:52:02;;;;;;;5.97;2.22;;;28.40;95.00;;;;;;5023779;28;20044;-78
2023/05/07 09:54:30;;;;;;;2.55;2.20;;;28.60;94.10;;;;;;5042987;28;20037;-79
2023/05/07 09:56:56;;;;;;;3.42;1.38;;;28.70;93.70;;;;;;5010055;28;20519;-79
2023/05/07 09:59:22;;;;;;;2.00;1.58;;;28.60;93.50;;;;;;5026886;28;20037;-79
2023/05/07 10:01:47;;;;;;;3.03;2.17;;;28.90;93.40;;;;;;5027404;28;20828;-79
2023/05/07 10:04:13;;;;;;;2.42;1.90;;;29.30;90.20;;;;;;5043464;28;20617;-78
2023/05/07 10:06:38;;;;;;;8.13;2.35;;;29.20;91.50;;;;;;5037333;28;20037;-79
2023/05/07 10:09:07;;;;;;;5.85;1.80;;;29.40;91.40;;;;;;5040675;28;20112;-78
2023/05/07 10:11:34;;;;;;;4.45;2.15;;;29.40;91.00;;;;;;5010330;28;20044;-79
2023/05/07 10:14:01;;;;;;;2.15;1.77;;;29.60;90.20;;;;;;5022681;28;20063;-79
2023/05/07 10:16:27;;;;;;;1.67;1.58;;;29.90;89.30;;;;;;5040701;28;20099;-80
2023/05/07 10:18:53;;;;;;;2.28;1.75;;;30.20;88.30;;;;;;5026858;28;20033;-80
2023/05/07 10:21:20;;;;;;;3.30;1.60;;;30.40;86.50;;;;;;5023716;28;20040;-80
2023/05/07 10:23:50;;;;;;;2.25;1.50;;;30.50;86.40;;;;;;5021459;28;20799;-81
2023/05/07 10:26:16;;;;;;;3.00;1.80;;;30.70;84.90;;;;;;5041963;28;20033;-81
2023/05/07 10:28:45;;;;;;;2.38;1.83;;;30.90;85.20;;;;;;5031631;28;20025;-81
2023/05/07 10:31:21;;;;;;;1.40;1.30;;;31.10;84.30;;;;;;5033215;28;20036;-82
2023/05/07 10:33:46;;;;;;;;;;;31.30;81.10;;;;;;5033365;28;20036;-83
2023/05/07 10:36:12;;;;;;;;;;;31.30;80.40;;;;;;5042084;28;20457;-82
2023/05/07 10:38:39;;;;;;;3.17;1.80;;;31.30;79.40;;;;;;5031711;28;19916;-82
2023/05/07 10:41:05;;;;;;;4.47;1.90;;;31.30;78.80;;;;;;5014241;28;20039;-82
2023/05/07 10:43:41;;;;;;;4.13;2.20;;;31.30;78.10;;;;;;4998265;28;20119;-81
2023/05/07 10:46:16;;;;;;;2.97;1.60;;;31.40;77.00;;;;;;5016578;28;20033;-81
2023/05/07 10:49:00;;;;;;;1.80;1.65;;;31.20;78.70;;;;;;5055011;28;20029;-82
2023/05/07 10:51:26;;;;;;;2.88;1.95;;;31.40;77.90;;;;;;5044903;28;20053;-82
2023/05/07 10:54:15;;;;;;;3.88;2.65;;;31.50;78.00;;;;;;5026219;28;20097;-82
2023/05/07 10:56:44;;;;;;;3.38;1.98;;;31.60;76.50;;;;;;5042485;28;20029;-80
2023/05/07 10:59:27;;;;;;;3.13;2.20;;;31.50;77.60;;;;;;5025986;28;20032;-81
2023/05/07 11:01:53;;;;;;;3.90;1.90;;;31.80;77.30;;;;;;5038660;28;20424;-83
2023/05/07 11:04:24;;;;;;;2.80;2.47;;;32.10;76.00;;;;;;5040684;28;20047;-80
2023/05/07 11:07:08;;;;;;;1.80;1.63;;;32.40;75.20;;;;;;5027025;28;20047;-82
2023/05/07 11:09:52;;;;;;;2.47;2.15;;;32.50;75.10;;;;;;5047740;28;20021;-82
2023/05/07 11:12:36;;;;;;;3.45;2.15;;;32.60;72.70;;;;;;5053044;28;20524;-82
2023/05/07 11:15:05;;;;;;;7.60;2.30;;;32.50;71.80;;;;;;5042337;28;20037;-81
2023/05/07 11:17:34;;;;;;;2.83;2.30;;;32.50;69.60;;;;;;5024640;28;20044;-82
2023/05/07 11:19:59;;;;;;;4.38;1.95;;;32.30;71.00;;;;;;5010069;28;20159;-82
2023/05/07 11:22:36;;;;;;;4.20;1.95;;;32.30;69.70;;;;;;5020684;28;20037;-82
2023/05/07 11:25:08;;;;;;;1.58;1.48;;;32.20;70.80;;;;;;5025488;28;20059;-82
2023/05/07 11:27:34;;;;;;;3.63;1.70;;;32.10;72.10;;;;;;5026126;28;20025;-82
2023/05/07 11:30:02;;;;;;;3.45;2.15;;;32.20;70.70;;;;;;5001633;28;20106;-82
2023/05/07 11:32:29;;;;;;;2.05;1.80;;;32.30;67.50;;;;;;5038279;28;20044;-82
2023/05/07 11:34:56;;;;;;;2.85;2.05;;;32.30;70.50;;;;;;5006059;28;20049;-83
2023/05/07 11:37:22;;;;;;;3.00;1.92;;;32.60;70.90;;;;;;5021728;28;20030;-82
2023/05/07 11:39:48;;;;;;;2.35;1.77;;;32.80;70.00;;;;;;5024702;28;20524;-82
2023/05/07 11:42:29;;;;;;;4.13;2.28;;;32.90;68.50;;;;;;5024454;28;20123;-79
2023/05/07 11:44:55;;;;;;;6.13;3.30;;;33.10;68.20;;;;;;5026953;28;20037;-80
2023/05/07 11:47:20;;;;;;;3.42;2.47;;;33.20;66.10;;;;;;5036621;28;20037;-78
2023/05/07 11:49:49;;;;;;;4.43;2.97;;;33.20;68.70;;;;;;5024883;28;20037;-80
2023/05/07 11:52:16;;;;;;;3.60;2.90;;;33.00;66.30;;;;;;5007935;28;20385;-78
2023/05/07 11:54:41;;;;;;;3.05;2.22;;;33.10;67.00;;;;;;5005270;28;20036;-78
2023/05/07 11:57:07;;;;;;;1.95;1.83;;;33.10;65.00;;;;;;5007206;28;20513;-79
2023/05/07 11:59:40;;;;;;;7.25;2.53;;;33.00;65.80;;;;;;5005883;28;20033;-79
2023/05/07 12:02:06;;;;;;;5.82;2.35;;;32.70;68.00;;;;;;5043935;28;20033;-82
2023/05/07 12:04:32;;;;;;;2.40;2.20;;;32.70;66.90;;;;;;5010256;28;20044;-82
2023/05/07 12:06:57;;;;;;;2.70;2.13;;;32.80;65.80;;;;;;5044149;28;20048;-83
2023/05/07 12:09:32;;;;;;;3.55;2.30;;;32.70;63.30;;;;;;5045124;28;20079;-82
2023/05/07 12:11:57;;;;;;;2.85;2.50;;;32.60;65.80;;;;;;5034052;28;20496;-82
2023/05/07 12:14:27;;;;;;;3.67;3.33;;;32.60;65.70;;;;;;5033596;28;20065;-82
2023/05/07 12:16:53;;;;;;;2.67;2.47;;;32.50;64.50;;;;;;5015096;28;20033;-83
2023/05/07 12:19:18;;;;;;;2.38;1.98;;;32.40;63.40;;;;;;5012504;28;20124;-83
2023/05/07 12:21:44;;;;;;;2.90;2.15;;;32.40;65.90;;;;;;5050917;28;20036;-82
2023/05/07 12:24:09;;;;;;;2.97;2.65;;;32.30;65.20;;;;;;5027379;28;20043;-82
2023/05/07 12:26:38;;;;;;;3.83;3.40;;;32.30;64.70;;;;;;5048014;28;20037;-83
2023/05/07 12:29:04;;;;;;;3.50;2.88;;;32.30;64.70;;;;;;5044043;28;20025;-81
2023/05/07 12:31:30;;;;;;;4.20;3.25;;;32.40;64.50;;;;;;4358519;28;10000139;-82
2023/05/07 12:33:55;;;;;;;5.90;4.40;;;32.40;65.60;;;;;;5039384;28;20103;-82
2023/05/07 12:36:21;;;;;;;6.55;4.32;;;32.40;65.30;;;;;;5028918;28;20832;-82
2023/05/07 12:38:48;;;;;;;3.60;3.10;;;32.40;64.80;;;;;;5019198;28;20452;-83